Pierce, Colorado
Current Conditions -  °F | °C
As of 10:55 PM on Wednesday 17 Dec 2014 (Local Time) from KGXY Reporting Station
Broken Clouds Broken Clouds  
Wind Chill: 25°   Ceiling: 7000
Heat Index: 25°   Visibility: 10mi
Dew Point: 16°   Wind: 0mph
Humidity: 69%   Direction: NA
Pressure: 30"   Gusts: NA
Location:  40.64°N, 104.76°W
Report Text: KGXY 180555Z AUTO 00000KT 10SM FEW055 BKN070 M04/M09 A3000 RMK AO1 11030 21050 52014
Loading
Personal Weather Stations






























Interactive Weather Map New forecast layout! Learn more

10-Day Weather Forecast

Advertisements
Track Severe Weather on mobile